Time;durP1;ratioP1;P1;durP2;ratioP2;P2;SDS_P1;SDS_P2;PMS_P1;PMS_P2;Temp;Humidity;BMP_temperature;BMP_pressure;BME280_temperature;BME280_humidity;BME280_pressure;Samples;Min_cycle;Max_cycle;Signal;HPM_P1;HPM_P2
2024/01/30 00:01:53;;;;;;;14.60;9.70;;;;;;;9.96;68.10;100914.25;4955065;28;20145;-77
2024/01/30 00:04:20;;;;;;;16.60;10.13;;;;;;;9.94;68.44;100919.56;4972219;28;20492;-76
2024/01/30 00:06:47;;;;;;;16.73;10.60;;;;;;;9.92;68.41;100921.41;4971852;28;20051;-76
2024/01/30 00:09:13;;;;;;;15.05;10.35;;;;;;;9.89;68.34;100917.13;4954983;28;20061;-78
2024/01/30 00:11:40;;;;;;;15.27;10.18;;;;;;;9.88;68.66;100914.53;4972188;28;20118;-76
2024/01/30 00:14:06;;;;;;;14.65;9.80;;;;;;;9.87;68.92;100910.19;4971987;28;20063;-76
2024/01/30 00:16:33;;;;;;;14.30;9.43;;;;;;;9.85;68.76;100912.88;4971867;28;20500;-77
2024/01/30 00:19:02;;;;;;;14.23;10.50;;;;;;;9.84;68.90;100915.56;4971974;28;20063;-77
2024/01/30 00:21:28;;;;;;;16.65;10.70;;;;;;;9.85;69.24;100914.63;4954830;28;20488;-80
2024/01/30 00:23:55;;;;;;;14.15;9.38;;;;;;;9.83;69.19;100919.09;4971741;28;20082;-76
2024/01/30 00:26:22;;;;;;;14.45;9.60;;;;;;;9.84;69.17;100905.03;4971853;28;20125;-77
2024/01/30 00:28:48;;;;;;;16.52;10.35;;;;;;;9.83;69.15;100903.34;4954647;28;20584;-76
2024/01/30 00:31:15;;;;;;;14.30;9.60;;;;;;;9.82;69.08;100904.22;4955045;28;20473;-76
2024/01/30 00:33:42;;;;;;;13.68;10.35;;;;;;;9.80;69.25;100914.81;4954535;28;20506;-77
2024/01/30 00:36:09;;;;;;;14.07;9.90;;;;;;;9.80;69.29;100900.81;4954808;28;20125;-75
2024/01/30 00:38:36;;;;;;;14.65;9.48;;;;;;;9.80;69.39;100904.31;4971442;28;20117;-77
2024/01/30 00:41:02;;;;;;;13.70;9.77;;;;;;;9.78;69.63;100904.34;4972053;28;20153;-76
2024/01/30 00:43:29;;;;;;;14.30;9.77;;;;;;;9.78;69.38;100899.09;4954617;28;20047;-76
2024/01/30 00:45:56;;;;;;;15.70;9.93;;;;;;;9.79;69.55;100886.78;4971958;28;20066;-78
2024/01/30 00:48:22;;;;;;;16.35;10.77;;;;;;;9.76;69.64;100887.75;4954284;28;20069;-76
2024/01/30 00:50:49;;;;;;;15.95;10.02;;;;;;;9.77;69.64;100883.38;4971793;28;20082;-78
2024/01/30 00:53:16;;;;;;;18.42;9.60;;;;;;;9.76;69.75;100890.38;4971776;28;20562;-78
2024/01/30 00:55:43;;;;;;;16.20;9.75;;;;;;;9.77;69.75;100881.56;4971973;28;20058;-76
2024/01/30 00:58:09;;;;;;;14.55;10.02;;;;;;;9.76;69.89;100884.28;4971458;28;20110;-77
2024/01/30 01:00:37;;;;;;;13.98;10.27;;;;;;;9.75;69.77;100886.03;4971574;28;20488;-79
2024/01/30 01:03:03;;;;;;;15.43;10.70;;;;;;;9.76;69.93;100881.66;4971655;28;20050;-76
2024/01/30 01:05:30;;;;;;;14.82;9.45;;;;;;;9.76;69.83;100889.53;4955947;28;20047;-77
2024/01/30 01:07:57;;;;;;;13.02;9.60;;;;;;;9.76;69.84;100890.38;4975119;28;20124;-78
2024/01/30 01:10:24;;;;;;;14.40;9.73;;;;;;;9.76;69.81;100881.66;4975584;28;20063;-77
2024/01/30 01:12:50;;;;;;;16.33;10.45;;;;;;;9.76;69.99;100886.91;4975343;28;20054;-76
2024/01/30 01:15:17;;;;;;;15.98;9.23;;;;;;;9.75;70.08;100886.03;4958222;28;20051;-78
2024/01/30 01:17:44;;;;;;;14.23;9.02;;;;;;;9.74;69.95;100884.34;4975198;28;20058;-77
2024/01/30 01:20:11;;;;;;;12.48;9.05;;;;;;;9.74;70.04;100884.34;4974644;28;20419;-77
2024/01/30 01:22:41;;;;;;;12.85;9.57;;;;;;;9.74;69.88;100881.72;4975258;28;20063;-79
2024/01/30 01:25:08;;;;;;;14.95;10.02;;;;;;;9.72;69.99;100878.25;4974906;28;20094;-76
2024/01/30 01:27:40;;;;;;;16.15;9.93;;;;;;;9.75;70.14;100890.44;4957690;28;20500;-77
2024/01/30 01:30:09;;;;;;;18.33;10.27;;;;;;;9.73;70.27;100884.38;4974733;28;20062;-77
2024/01/30 01:32:36;;;;;;;16.08;9.27;;;;;;;9.75;70.44;100883.41;4974876;28;20050;-76
2024/01/30 01:35:05;;;;;;;15.23;10.43;;;;;;;9.74;70.57;100881.72;4974579;28;20055;-78
2024/01/30 01:37:32;;;;;;;14.23;9.77;;;;;;;9.74;70.88;100883.47;4957991;28;20055;-76
2024/01/30 01:39:59;;;;;;;15.40;10.45;;;;;;;9.77;70.87;100878.09;4974556;28;20113;-77
2024/01/30 01:42:26;;;;;;;14.07;9.57;;;;;;;9.79;70.95;100884.16;4974784;28;20047;-75
2024/01/30 01:44:53;;;;;;;15.10;9.43;;;;;;;9.83;70.70;100874.41;4974419;28;20062;-79
2024/01/30 01:47:20;;;;;;;12.88;9.15;;;;;;;9.83;70.70;100872.63;4974588;28;20051;-76
2024/01/30 01:49:47;;;;;;;16.25;10.27;;;;;;;9.86;70.63;100869.00;4957350;28;20051;-76
2024/01/30 01:52:14;;;;;;;15.27;9.30;;;;;;;9.87;70.48;100862.88;4974706;28;20484;-77
2024/01/30 01:54:41;;;;;;;15.82;9.95;;;;;;;9.88;70.55;100859.31;4974201;28;20051;-76
2024/01/30 01:57:08;;;;;;;15.57;9.70;;;;;;;9.89;70.44;100861.88;4974318;28;20484;-77
2024/01/30 01:59:35;;;;;;;13.48;9.65;;;;;;;9.90;70.53;100862.72;4974287;28;20047;-76
2024/01/30 02:02:03;;;;;;;14.35;9.63;;;;;;;9.89;70.48;100856.63;4974130;28;20455;-76
2024/01/30 02:04:30;;;;;;;12.43;9.02;;;;;;;9.88;70.53;100864.56;4974252;28;20109;-78
2024/01/30 02:06:57;;;;;;;13.07;9.50;;;;;;;9.89;70.61;100861.88;4974372;28;20055;-76
2024/01/30 02:09:23;;;;;;;15.65;10.05;;;;;;;9.88;70.68;100859.31;4974486;28;20047;-76
2024/01/30 02:11:51;;;;;;;13.60;9.60;;;;;;;9.88;70.53;100847.00;4973616;28;20464;-77
2024/01/30 02:14:17;;;;;;;16.02;10.15;;;;;;;9.88;70.39;100849.63;4973970;28;20093;-77
2024/01/30 02:16:44;;;;;;;13.75;9.35;;;;;;;9.91;70.69;100852.16;4973645;28;20090;-76
2024/01/30 02:19:11;;;;;;;14.10;9.13;;;;;;;9.91;70.62;100848.69;4957003;28;20046;-76
2024/01/30 02:21:38;;;;;;;14.68;9.98;;;;;;;9.91;70.74;100848.69;4956464;28;20047;-76
2024/01/30 02:24:05;;;;;;;13.00;8.93;;;;;;;9.93;70.57;100851.22;4973971;28;20389;-77
2024/01/30 02:26:32;;;;;;;15.32;9.57;;;;;;;9.94;70.55;100845.09;4974066;28;20094;-75
2024/01/30 02:28:59;;;;;;;13.80;10.13;;;;;;;9.94;70.65;100850.34;4973944;28;20110;-75
2024/01/30 02:31:26;;;;;;;13.32;9.57;;;;;;;9.94;70.66;100848.56;4956173;28;20046;-78
2024/01/30 02:33:53;;;;;;;14.00;9.38;;;;;;;9.94;70.57;100835.41;4956355;28;20055;-76
2024/01/30 02:36:19;;;;;;;14.30;9.45;;;;;;;9.94;70.52;100832.78;4956549;28;20051;-76
2024/01/30 02:38:46;;;;;;;11.30;9.30;;;;;;;9.95;70.66;100837.16;4973762;28;20050;-77
2024/01/30 02:41:13;;;;;;;15.25;9.82;;;;;;;9.95;70.47;100839.78;4956058;28;20101;-77
2024/01/30 02:43:39;;;;;;;14.48;9.93;;;;;;;9.94;70.83;100832.78;4956226;28;20046;-75
2024/01/30 02:46:06;;;;;;;14.13;9.13;;;;;;;9.94;70.43;100832.78;4973402;28;20451;-76
2024/01/30 02:48:33;;;;;;;14.45;9.75;;;;;;;9.95;70.46;100836.28;4973888;28;20067;-76
2024/01/30 02:50:59;;;;;;;12.43;9.25;;;;;;;9.94;70.31;100819.63;4956420;28;20054;-77
2024/01/30 02:53:26;;;;;;;15.70;9.75;;;;;;;9.94;70.29;100822.25;4973556;28;20042;-75
2024/01/30 02:55:52;;;;;;;12.57;9.75;;;;;;;9.95;70.41;100817.88;4955990;28;20121;-77
2024/01/30 02:58:19;;;;;;;16.10;10.10;;;;;;;9.94;70.37;100824.03;4973093;28;20567;-76
2024/01/30 03:00:45;;;;;;;16.10;10.18;;;;;;;9.92;70.26;100818.84;4972981;28;20062;-76
2024/01/30 03:03:12;;;;;;;15.10;9.43;;;;;;;9.91;70.54;100817.13;4973502;28;20061;-77
2024/01/30 03:05:39;;;;;;;14.02;9.50;;;;;;;9.90;70.29;100810.13;4973098;28;20047;-76
2024/01/30 03:08:05;;;;;;;17.55;9.70;;;;;;;9.89;70.20;100805.78;4972764;28;20515;-75
2024/01/30 03:10:32;;;;;;;15.32;10.20;;;;;;;9.90;70.23;100804.88;4955911;28;20058;-77
2024/01/30 03:12:59;;;;;;;12.68;9.07;;;;;;;9.88;70.10;100809.34;4973267;28;20500;-77
2024/01/30 03:15:25;;;;;;;13.07;9.63;;;;;;;9.87;70.19;100805.00;4972706;28;20476;-75
2024/01/30 03:17:53;;;;;;;16.33;10.02;;;;;;;9.86;70.30;100795.38;4972853;28;20129;-75
2024/01/30 03:20:20;;;;;;;17.23;9.55;;;;;;;9.85;70.17;100797.16;4973048;28;20106;-77
2024/01/30 03:22:46;;;;;;;11.80;9.57;;;;;;;9.84;70.09;100789.34;4955591;28;20061;-75
2024/01/30 03:25:13;;;;;;;16.40;9.65;;;;;;;9.82;70.04;100792.00;4972552;28;20062;-79
2024/01/30 03:27:39;;;;;;;14.63;10.05;;;;;;;9.81;70.17;100789.44;4971812;28;20538;-77
2024/01/30 03:30:07;;;;;;;14.40;9.25;;;;;;;9.80;70.10;100787.72;4972813;28;20055;-76
2024/01/30 03:32:33;;;;;;;14.65;10.38;;;;;;;9.77;70.01;100786.91;4972774;28;20105;-76
2024/01/30 03:35:00;;;;;;;15.25;9.95;;;;;;;9.75;70.21;100790.50;4972399;28;20051;-78
2024/01/30 03:37:27;;;;;;;15.07;9.32;;;;;;;9.74;70.30;100783.56;4955423;28;20047;-75
2024/01/30 03:39:54;;;;;;;18.40;10.07;;;;;;;9.70;70.17;100777.56;4971914;28;20516;-76
2024/01/30 03:42:20;;;;;;;13.02;9.60;;;;;;;9.69;70.32;100774.97;4972460;28;20054;-77
2024/01/30 03:44:47;;;;;;;14.48;9.82;;;;;;;9.70;70.32;100781.94;4972229;28;20061;-75
2024/01/30 03:47:13;;;;;;;15.70;9.63;;;;;;;9.68;70.39;100774.13;4972485;28;20138;-76
2024/01/30 03:49:40;;;;;;;13.52;9.13;;;;;;;9.68;70.24;100776.75;4954843;28;20051;-75
2024/01/30 03:52:07;;;;;;;14.65;10.30;;;;;;;9.68;70.30;100768.84;4972136;28;20054;-76
2024/01/30 03:54:33;;;;;;;13.75;9.32;;;;;;;9.67;70.50;100772.41;4972388;28;20090;-75
2024/01/30 03:57:00;;;;;;;15.75;10.68;;;;;;;9.67;70.77;100769.78;4955283;28;20624;-76
2024/01/30 03:59:27;;;;;;;15.50;9.57;;;;;;;9.68;70.45;100771.47;4971912;28;20578;-79
2024/01/30 04:01:54;;;;;;;14.73;9.65;;;;;;;9.66;70.54;100775.94;4954934;28;20511;-77
2024/01/30 04:04:21;;;;;;;13.07;9.63;;;;;;;9.65;70.43;100769.81;4955009;28;20507;-76
2024/01/30 04:06:48;;;;;;;14.85;9.73;;;;;;;9.65;70.46;100780.34;4972120;28;20047;-77
2024/01/30 04:09:15;;;;;;;15.48;10.57;;;;;;;9.65;70.43;100774.25;4972088;28;20053;-76
2024/01/30 04:11:42;;;;;;;16.40;10.38;;;;;;;9.64;70.78;100768.13;4954887;28;20058;-77
2024/01/30 04:14:09;;;;;;;16.20;10.32;;;;;;;9.65;70.59;100771.63;4954584;28;20086;-77
2024/01/30 04:16:36;;;;;;;14.30;9.95;;;;;;;9.66;70.63;100768.06;4972196;28;20050;-75
2024/01/30 04:19:02;;;;;;;13.68;9.30;;;;;;;9.66;70.43;100768.06;4972603;28;20054;-78
2024/01/30 04:21:29;;;;;;;14.60;9.75;;;;;;;9.65;70.61;100766.34;4971485;28;20051;-76
2024/01/30 04:23:55;;;;;;;17.63;10.30;;;;;;;9.65;70.53;100769.81;4971937;28;20137;-76
2024/01/30 04:26:24;;;;;;;13.65;9.77;;;;;;;9.65;70.52;100769.00;4972099;28;20046;-76
2024/01/30 04:28:50;;;;;;;14.32;10.05;;;;;;;9.63;70.52;100771.66;4954659;28;20047;-77
2024/01/30 04:31:17;;;;;;;15.52;10.60;;;;;;;9.62;70.48;100764.72;4971742;28;20054;-78
2024/01/30 04:33:44;;;;;;;14.23;9.95;;;;;;;9.62;70.58;100766.47;4971647;28;20067;-77
2024/01/30 04:36:11;;;;;;;14.52;9.98;;;;;;;9.62;70.74;100758.56;4972146;28;20050;-76
2024/01/30 04:38:40;;;;;;;14.05;10.00;;;;;;;9.62;70.65;100756.81;4955238;28;20050;-79
2024/01/30 04:41:07;;;;;;;14.55;10.18;;;;;;;9.62;70.77;100762.06;4975410;28;20051;-76
2024/01/30 04:43:33;;;;;;;13.13;9.60;;;;;;;9.63;70.52;100760.28;4975870;28;20121;-79
2024/01/30 04:46:00;;;;;;;14.45;9.80;;;;;;;9.63;70.80;100749.78;4976150;28;20059;-76
2024/01/30 04:48:27;;;;;;;15.43;10.30;;;;;;;9.62;70.66;100750.69;4975619;28;20081;-75
2024/01/30 04:50:54;;;;;;;17.02;10.07;;;;;;;9.63;70.76;100760.28;4975642;28;20118;-76
2024/01/30 04:53:20;;;;;;;15.52;10.50;;;;;;;9.63;70.80;100750.63;4975091;28;20130;-76
2024/01/30 04:55:47;;;;;;;14.75;9.65;;;;;;;9.63;70.81;100755.03;4975653;28;20059;-76
2024/01/30 04:58:13;;;;;;;15.20;9.95;;;;;;;9.63;71.13;100744.50;4958394;28;20073;-77
2024/01/30 05:00:40;;;;;;;17.30;10.25;;;;;;;9.64;71.11;100741.84;4975478;28;20416;-77
2024/01/30 05:03:07;;;;;;;16.23;10.63;;;;;;;9.65;71.00;100737.44;4957813;28;20476;-76
2024/01/30 05:05:34;;;;;;;14.95;9.52;;;;;;;9.68;71.12;100734.69;4975140;28;20078;-75
2024/01/30 05:08:00;;;;;;;15.13;10.30;;;;;;;9.69;70.90;100732.91;4958159;28;20054;-77
2024/01/30 05:10:28;;;;;;;15.23;10.35;;;;;;;9.74;71.10;100736.22;4975357;28;20606;-77
2024/01/30 05:12:55;;;;;;;14.10;10.00;;;;;;;9.75;70.90;100746.69;4974770;28;20051;-78
2024/01/30 05:15:22;;;;;;;15.55;9.93;;;;;;;9.77;70.95;100746.63;4957659;28;20492;-76
2024/01/30 05:17:48;;;;;;;16.25;9.80;;;;;;;9.78;70.82;100754.47;4975395;28;20106;-77
2024/01/30 05:20:15;;;;;;;13.43;10.63;;;;;;;9.81;70.90;100750.88;4975158;28;20520;-75
2024/01/30 05:22:44;;;;;;;14.95;9.65;;;;;;;9.85;70.91;100752.47;4974492;28;20078;-76
2024/01/30 05:25:12;;;;;;;16.25;9.90;;;;;;;9.87;70.96;100755.03;4975079;28;20054;-76
2024/01/30 05:27:39;;;;;;;15.88;9.77;;;;;;;9.90;70.99;100749.63;4957711;28;20527;-75
2024/01/30 05:30:07;;;;;;;13.85;9.63;;;;;;;9.93;70.79;100748.66;4957731;28;20050;-77
2024/01/30 05:32:33;;;;;;;13.65;9.35;;;;;;;9.94;70.61;100758.28;4974736;28;20102;-76
2024/01/30 05:35:00;;;;;;;13.35;9.45;;;;;;;9.95;70.75;100755.59;4974693;28;20138;-77
2024/01/30 05:37:27;;;;;;;13.32;9.63;;;;;;;9.98;70.84;100750.19;4939109;29;20058;-78
2024/01/30 05:39:53;;;;;;;14.40;9.63;;;;;;;9.99;70.72;100751.06;4955439;29;20069;-77
2024/01/30 05:42:20;;;;;;;14.45;9.63;;;;;;;10.02;70.71;100746.53;4938347;29;20051;-76
2024/01/30 05:44:46;;;;;;;13.45;9.13;;;;;;;10.03;70.52;100742.16;4955267;29;20070;-78
2024/01/30 05:47:13;;;;;;;18.15;9.70;;;;;;;10.04;70.37;100746.50;4970901;28;20055;-78
2024/01/30 05:49:39;;;;;;;12.65;9.18;;;;;;;10.04;70.51;100747.34;4974708;28;20129;-81
2024/01/30 05:52:06;;;;;;;15.90;9.20;;;;;;;10.04;70.53;100738.59;4973749;28;20051;-77
2024/01/30 05:54:32;;;;;;;14.32;8.98;;;;;;;10.06;70.34;100736.78;4974512;28;20125;-77
2024/01/30 05:56:59;;;;;;;15.10;9.48;;;;;;;10.06;70.38;100736.78;4974661;28;20492;-77
2024/01/30 05:59:25;;;;;;;14.52;8.68;;;;;;;10.06;70.05;100734.16;4974427;28;20130;-77
2024/01/30 06:01:53;;;;;;;14.13;9.00;;;;;;;10.08;69.98;100739.31;4974216;28;20046;-78
2024/01/30 06:04:20;;;;;;;13.10;8.90;;;;;;;10.07;70.16;100740.25;4956816;28;20059;-77
2024/01/30 06:06:47;;;;;;;12.85;9.38;;;;;;;10.06;70.21;100735.91;4974571;28;20134;-76
2024/01/30 06:09:14;;;;;;;14.90;9.45;;;;;;;10.04;70.06;100734.19;4957014;28;20526;-77
2024/01/30 06:11:40;;;;;;;15.93;9.98;;;;;;;10.02;70.23;100736.03;4956595;28;20058;-78
2024/01/30 06:14:07;;;;;;;13.35;9.70;;;;;;;10.02;70.38;100736.03;4956243;28;20043;-77
2024/01/30 06:16:34;;;;;;;14.77;10.00;;;;;;;10.01;70.28;100739.56;4974122;28;20096;-76
2024/01/30 06:19:00;;;;;;;14.02;8.60;;;;;;;10.02;70.42;100743.91;4974115;28;20105;-76
2024/01/30 06:21:27;;;;;;;14.38;8.90;;;;;;;10.02;70.32;100738.66;4972540;28;20047;-79
2024/01/30 06:23:53;;;;;;;14.10;9.43;;;;;;;10.03;70.39;100743.00;4956163;28;20046;-78
2024/01/30 06:26:20;;;;;;;12.88;9.70;;;;;;;10.03;70.53;100737.72;4973511;28;20051;-78
2024/01/30 06:28:46;;;;;;;14.90;9.10;;;;;;;10.04;70.50;100736.84;4956424;28;20053;-76
2024/01/30 06:31:13;;;;;;;12.95;9.13;;;;;;;10.05;70.43;100729.78;4973614;28;20090;-76
2024/01/30 06:33:42;;;;;;;11.75;8.77;;;;;;;10.07;70.44;100737.63;4973105;28;20050;-78
2024/01/30 06:36:08;;;;;;;17.63;9.68;;;;;;;10.07;70.61;100733.22;4973755;28;20114;-75
2024/01/30 06:38:35;;;;;;;12.48;9.13;;;;;;;10.08;70.51;100732.31;4973838;28;20050;-76
2024/01/30 06:41:01;;;;;;;14.13;9.60;;;;;;;10.10;70.57;100734.88;4972612;28;20606;-76
2024/01/30 06:43:28;;;;;;;18.23;9.23;;;;;;;10.11;70.32;100726.94;4954640;28;20665;-76
2024/01/30 06:45:55;;;;;;;14.73;9.60;;;;;;;10.11;70.21;100729.56;4972391;28;20057;-77
2024/01/30 06:48:21;;;;;;;12.32;8.80;;;;;;;10.11;70.20;100726.94;4972539;28;20057;-76
2024/01/30 06:50:49;;;;;;;13.35;8.93;;;;;;;10.12;70.12;100730.41;4972068;28;20106;-76
2024/01/30 06:53:15;;;;;;;17.10;9.63;;;;;;;10.12;70.13;100727.75;4972070;28;20055;-78
2024/01/30 06:55:42;;;;;;;14.57;9.60;;;;;;;10.11;70.01;100732.19;4972286;28;20138;-78
2024/01/30 06:58:08;;;;;;;14.40;9.15;;;;;;;10.14;70.31;100744.38;4956225;28;20051;-75
2024/01/30 07:00:36;;;;;;;16.15;9.25;;;;;;;10.11;70.17;100740.09;4956101;28;20051;-79
2024/01/30 07:03:02;;;;;;;13.88;8.90;;;;;;;10.11;70.04;100737.44;4973111;28;20043;-76
2024/01/30 07:05:29;;;;;;;16.00;9.30;;;;;;;10.12;70.25;100733.03;4973013;28;20047;-76
2024/01/30 07:07:55;;;;;;;14.95;9.13;;;;;;;10.12;70.07;100730.41;5012364;23;20125;-80
2024/01/30 07:10:22;;;;;;;14.10;9.65;;;;;;;10.10;70.31;100730.44;4973720;28;20373;-77
2024/01/30 07:12:49;;;;;;;12.55;9.05;;;;;;;10.11;70.19;100729.56;4973347;28;20058;-78
2024/01/30 07:15:18;;;;;;;15.60;9.10;;;;;;;10.10;70.13;100734.88;4972937;28;20102;-77
2024/01/30 07:17:44;;;;;;;15.23;9.27;;;;;;;10.10;70.12;100737.50;4972608;28;20476;-81
2024/01/30 07:20:11;;;;;;;13.88;9.65;;;;;;;10.10;70.34;100730.44;4972239;28;20487;-77
2024/01/30 07:22:44;;;;;;;13.25;8.60;;;;;;;10.11;70.20;100728.69;4956099;28;20082;-78
2024/01/30 07:25:10;;;;;;;12.88;9.35;;;;;;;10.13;70.30;100724.25;4972585;28;20118;-76
2024/01/30 07:27:36;;;;;;;12.68;9.05;;;;;;;10.12;70.50;100730.41;4972568;28;20519;-77
2024/01/30 07:30:03;;;;;;;16.35;9.52;;;;;;;10.12;70.39;100740.91;4972956;28;20181;-78
2024/01/30 07:32:30;;;;;;;14.98;9.50;;;;;;;10.12;70.35;100727.75;4972946;28;20134;-76
2024/01/30 07:34:56;;;;;;;14.77;9.70;;;;;;;10.13;70.25;100724.25;4972187;28;20089;-76
2024/01/30 07:37:34;;;;;;;12.13;9.27;;;;;;;10.14;70.23;100723.31;4972730;28;20047;-77
2024/01/30 07:40:03;;;;;;;13.25;8.73;;;;;;;10.15;70.24;100723.25;4972547;28;20118;-76
2024/01/30 07:42:30;;;;;;;12.63;8.88;;;;;;;10.16;70.43;100724.09;4972520;28;20142;-76
2024/01/30 07:44:57;;;;;;;12.68;9.05;;;;;;;10.15;70.25;100720.63;4972371;28;20050;-75
2024/01/30 07:47:23;;;;;;;13.68;8.23;;;;;;;10.16;70.44;100729.34;4971905;28;20762;-77
2024/01/30 07:49:51;;;;;;;13.30;9.00;;;;;;;10.16;70.33;100724.09;4972484;28;20050;-80
2024/01/30 07:52:17;;;;;;;14.38;8.57;;;;;;;10.17;70.12;100724.03;4972657;28;20047;-77
2024/01/30 07:54:44;;;;;;;15.43;8.82;;;;;;;10.16;70.25;100721.47;4972238;28;20058;-77
2024/01/30 07:57:11;;;;;;;14.40;9.95;;;;;;;10.18;70.24;100732.81;4972006;28;20057;-77
2024/01/30 07:59:37;;;;;;;14.73;9.32;;;;;;;10.18;70.32;100732.81;4972003;28;20451;-77
2024/01/30 08:02:04;;;;;;;18.80;9.18;;;;;;;10.17;70.26;100739.00;4971916;28;20129;-76
2024/01/30 08:04:30;;;;;;;12.40;8.98;;;;;;;10.19;70.38;100737.13;4954652;28;20057;-76
2024/01/30 08:06:57;;;;;;;12.40;8.57;;;;;;;10.21;70.36;100732.66;4972324;28;20047;-77
2024/01/30 08:09:24;;;;;;;13.20;8.95;;;;;;;10.22;70.31;100742.28;4972114;28;20499;-77
2024/01/30 08:11:50;;;;;;;11.93;8.60;;;;;;;10.23;70.54;100744.00;4972178;28;20117;-76
2024/01/30 08:14:16;;;;;;;13.98;8.98;;;;;;;10.24;70.07;100750.13;4954253;28;20131;-77
2024/01/30 08:16:43;;;;;;;12.70;8.85;;;;;;;10.27;70.45;100744.72;4971987;28;20086;-80
2024/01/30 08:19:09;;;;;;;15.98;8.63;;;;;;;10.27;70.34;100752.63;4972174;28;20126;-76
2024/01/30 08:21:36;;;;;;;13.57;8.43;;;;;;;10.29;70.46;100749.00;4972285;28;20047;-77
2024/01/30 08:24:06;;;;;;;12.52;8.85;;;;;;;10.33;70.53;100755.03;4971921;28;20523;-76
2024/01/30 08:26:33;;;;;;;15.20;8.50;;;;;;;10.34;70.42;100745.31;4972349;28;20051;-77
2024/01/30 08:29:01;;;;;;;14.27;8.98;;;;;;;10.36;70.28;100743.50;4972274;28;20051;-75
2024/01/30 08:31:28;;;;;;;13.43;8.65;;;;;;;10.36;70.08;100744.34;4971793;28;20047;-73
2024/01/30 08:33:54;;;;;;;14.50;9.20;;;;;;;10.37;70.25;100740.81;4954848;28;20070;-76
2024/01/30 08:36:21;;;;;;;15.77;9.15;;;;;;;10.38;70.26;100739.88;4972172;28;20046;-79
2024/01/30 08:38:48;;;;;;;15.23;9.88;;;;;;;10.39;70.40;100743.41;4972147;28;20050;-78
2024/01/30 08:41:14;;;;;;;14.32;9.07;;;;;;;10.41;70.20;100746.81;4971856;28;20129;-75
2024/01/30 08:43:41;;;;;;;14.13;8.70;;;;;;;10.45;70.39;100740.53;4971822;28;20105;-77
2024/01/30 08:46:07;;;;;;;12.48;8.73;;;;;;;10.47;70.39;100740.47;4954765;28;20129;-80
2024/01/30 08:48:35;;;;;;;14.80;8.98;;;;;;;10.47;70.23;100736.03;4971782;28;20046;-76
2024/01/30 08:51:02;;;;;;;11.55;8.35;;;;;;;10.52;70.33;100743.78;4971894;28;20373;-76
2024/01/30 08:53:29;;;;;;;14.63;8.82;;;;;;;10.54;70.42;100732.25;4971585;28;20137;-77
2024/01/30 08:55:55;;;;;;;10.95;8.20;;;;;;;10.58;70.54;100745.28;4971695;28;20543;-75
2024/01/30 08:58:22;;;;;;;12.90;8.65;;;;;;;10.63;70.53;100743.31;4954528;28;20176;-78
2024/01/30 09:00:48;;;;;;;12.93;8.15;;;;;;;10.66;70.44;100743.22;4954708;28;20043;-79
2024/01/30 09:03:15;;;;;;;13.88;8.30;;;;;;;10.70;70.28;100755.31;4971542;28;20053;-76
2024/01/30 09:05:42;;;;;;;16.33;8.13;;;;;;;10.77;70.42;100759.41;4971386;28;20086;-76
2024/01/30 09:08:08;;;;;;;12.73;8.68;;;;;;;10.81;70.26;100746.97;4971547;28;20053;-76
2024/01/30 09:10:35;;;;;;;12.13;8.68;;;;;;;10.87;69.93;100759.03;4971665;28;20559;-81
2024/01/30 09:13:01;;;;;;;13.25;9.05;;;;;;;10.92;70.01;100757.06;4971449;28;20142;-77
2024/01/30 09:15:28;;;;;;;12.07;8.07;;;;;;;10.94;69.99;100753.44;4971420;28;20062;-76
2024/01/30 09:17:54;;;;;;;10.93;8.05;;;;;;;10.98;69.96;100751.53;4971749;28;20055;-77
2024/01/30 09:20:22;;;;;;;14.07;8.73;;;;;;;11.01;69.88;100754.03;4971757;28;20083;-76
2024/01/30 09:22:49;;;;;;;16.10;9.07;;;;;;;11.04;69.52;100755.69;4971482;28;20045;-76
2024/01/30 09:25:15;;;;;;;15.70;8.90;;;;;;;11.07;69.36;100740.59;4971259;28;20046;-79
2024/01/30 09:27:42;;;;;;;13.70;8.90;;;;;;;11.10;69.11;100746.66;4974768;28;20047;-77
2024/01/30 09:30:09;;;;;;;12.93;8.38;;;;;;;11.12;69.37;100752.69;4975279;28;20050;-76
2024/01/30 09:32:35;;;;;;;12.88;8.00;;;;;;;11.14;69.21;100758.78;4975047;28;20113;-77
2024/01/30 09:35:02;;;;;;;13.23;8.48;;;;;;;11.15;69.22;100756.09;4974931;28;20113;-76
2024/01/30 09:37:28;;;;;;;13.20;8.82;;;;;;;11.15;69.26;100756.09;4975135;28;20101;-77
2024/01/30 09:39:55;;;;;;;15.63;8.77;;;;;;;11.16;68.95;100754.28;4974747;28;20472;-77
2024/01/30 09:42:32;;;;;;;13.65;8.77;;;;;;;11.17;68.79;100755.97;4957671;28;20476;-76
2024/01/30 09:44:58;;;;;;;13.00;8.30;;;;;;;11.18;69.16;100749.81;4957546;28;20070;-77
2024/01/30 09:47:26;;;;;;;14.40;9.30;;;;;;;11.20;69.41;100751.47;4957509;28;20043;-79
2024/01/30 09:49:53;;;;;;;12.40;8.75;;;;;;;11.23;69.45;100755.75;4957639;28;20464;-76
2024/01/30 09:52:20;;;;;;;15.25;7.85;;;;;;;11.24;69.23;100762.72;4974416;28;20071;-79
2024/01/30 09:54:49;;;;;;;14.07;8.85;;;;;;;11.26;69.12;100765.28;4974171;28;20066;-76
2024/01/30 09:57:16;;;;;;;13.63;8.77;;;;;;;11.29;69.52;100759.88;4974435;28;20047;-77
2024/01/30 09:59:43;;;;;;;15.32;8.23;;;;;;;11.32;69.58;100755.31;4974678;28;20134;-79
2024/01/30 10:02:10;;;;;;;15.27;8.90;;;;;;;11.36;69.55;100756.03;4957210;28;20369;-78
2024/01/30 10:04:37;;;;;;;12.65;8.48;;;;;;;11.40;69.58;100757.63;4974243;28;20094;-77
2024/01/30 10:07:03;;;;;;;12.68;8.45;;;;;;;11.45;69.69;100770.59;4974364;28;20439;-75
2024/01/30 10:09:34;;;;;;;12.93;8.65;;;;;;;11.46;69.06;100764.41;4974529;28;20050;-78
2024/01/30 10:12:01;;;;;;;13.30;8.48;;;;;;;11.49;69.38;100766.91;4974493;28;20054;-79
2024/01/30 10:14:28;;;;;;;12.55;8.73;;;;;;;11.55;69.25;100773.69;4956945;28;20054;-79
2024/01/30 10:16:55;;;;;;;13.70;8.75;;;;;;;11.56;69.29;100765.69;4974281;28;20109;-75
2024/01/30 10:19:22;;;;;;;11.30;8.45;;;;;;;11.59;69.44;100768.19;4974198;28;20062;-77
2024/01/30 10:21:49;;;;;;;12.95;8.50;;;;;;;11.61;69.36;100768.13;4973948;28;20047;-77
2024/01/30 10:24:16;;;;;;;14.50;8.95;;;;;;;11.65;69.09;100766.22;4956715;28;20047;-76
2024/01/30 10:26:46;;;;;;;20.30;8.73;;;;;;;11.66;68.57;100760.03;4974229;28;20051;-76
2024/01/30 10:29:13;;;;;;;14.95;9.20;;;;;;;11.69;69.09;100763.38;4974049;28;20054;-75
2024/01/30 10:31:39;;;;;;;12.40;8.43;;;;;;;11.71;69.02;100760.66;4973948;28;20459;-77
2024/01/30 10:34:06;;;;;;;12.93;8.88;;;;;;;11.72;69.10;100762.38;4973568;28;20046;-81
2024/01/30 10:36:49;;;;;;;13.18;8.57;;;;;;;11.73;68.83;100775.50;4973775;28;20039;-77
2024/01/30 10:39:17;;;;;;;12.68;8.52;;;;;;;11.74;68.87;100781.63;4974038;28;20097;-79
2024/01/30 10:41:44;;;;;;;14.18;8.73;;;;;;;11.76;69.02;100778.91;4973852;28;20137;-75
2024/01/30 10:44:11;;;;;;;13.13;8.43;;;;;;;11.77;69.19;100778.00;4973476;28;20452;-75
2024/01/30 10:46:40;;;;;;;14.43;8.75;;;;;;;11.78;69.13;100772.63;4973845;28;20047;-78
2024/01/30 10:49:07;;;;;;;14.68;9.68;;;;;;;11.80;69.17;100776.06;4973763;28;20476;-76
2024/01/30 10:51:35;;;;;;;14.93;8.43;;;;;;;11.82;68.90;100776.84;4973618;28;20050;-77
2024/01/30 10:54:04;;;;;;;16.98;9.18;;;;;;;11.82;68.88;100774.19;4973381;28;20137;-76
2024/01/30 10:56:33;;;;;;;13.38;7.75;;;;;;;11.85;69.09;100770.59;4973469;28;20547;-78
2024/01/30 10:59:00;;;;;;;15.02;8.02;;;;;;;11.89;69.30;100771.31;4973190;28;20408;-78
2024/01/30 11:01:28;;;;;;;11.00;8.63;;;;;;;11.92;69.28;100772.00;4956169;28;20054;-76
2024/01/30 11:03:56;;;;;;;17.38;9.43;;;;;;;11.95;69.42;100774.50;4955881;28;20082;-77
2024/01/30 11:06:25;;;;;;;10.50;7.53;;;;;;;11.99;69.42;100780.50;4956133;28;20078;-78
2024/01/30 11:09:09;;;;;;;12.75;8.90;;;;;;;12.00;68.72;100771.63;4955888;28;20062;-77
2024/01/30 11:11:49;;;;;;;11.88;8.48;;;;;;;12.03;68.57;100779.41;4973100;28;20047;-77
2024/01/30 11:14:16;;;;;;;11.25;8.20;;;;;;;12.10;69.70;100777.38;4972981;28;20196;-75
2024/01/30 11:16:42;;;;;;;12.45;8.02;;;;;;;12.14;69.59;100776.31;4973090;28;20057;-76
2024/01/30 11:19:12;;;;;;;14.38;8.85;;;;;;;12.18;69.48;100777.03;4973192;28;20051;-77